San Angelo, TX (76901)

11:39 AM CDT on August 20, 2014 (GMT -0500)
WT_Meso 7NW San Angelo, TX | Change Station
CLOSE
Current Station
Personal Weather Station
Location: San Angelo, TX
Elevation: 1957 ft
Nearby Weather Stations

Elev 1957 ft 31.54 °N, 100.51 °W | Updated 44 minutes ago

Partly Cloudy
Partly Cloudy
80 °F
Feels Like 83 °F
N
17
Wind Variable Wind from South
Gusts 21.0 mph

Today
High -- | Low -- °F
--% Chance of Precip.
Yesterday
High -- | Low -- °F
Precip. -- in
7:10 AM 8:19 PM
Waning Crescent, 20% visible
Pressure 29.92 in
Visibility 10.0 miles
Clouds Few 2500 ft
Heat Index 83 °F
Dew Point 68 °F
Humidity 67%
Rainfall -999.00 in
Snow Depth Not available.
UV 6 out of 12
Pollen 7.70 out of 12
Air Quality Not available.
Flu Activity Not available.
METAR KSJT 201551Z 18014G19KT 10SM FEW025 28/20 A2999 RMK AO2 SLP130 T02830200

More Conditions Fewer Conditions

Pressure 29.92 in
Visibility 10.0 miles
Clouds Few 2500 ft
Heat Index 83 °F
Dew Point 68 °F
Humidity 67%
Rainfall -999.00 in
Snow Depth Not available.
UV 6 out of 12
Pollen 7.70 out of 12
Air Quality Not available.
Flu Activity Not available.
METAR KSJT 201551Z 18014G19KT 10SM FEW025 28/20 A2999 RMK AO2 SLP130 T02830200

More Conditions Fewer Conditions

10-Day Weather Forecast

Almanac

Astronomy

Aug. 20, 2014 Rise Set
Actual Time 7:10 AM CDT 8:19 PM CDT
Civil Twilight 6:45 AM CDT 8:45 PM CDT
Nautical Twilight 6:15 AM CDT 9:15 PM CDT
Astronomical Twilight 5:43 AM CDT 9:46 PM CDT
Moon 2:58 AM CDT 4:59 PM CDT
Length of Visible Light 13h 59m
Length of Day
13h 09m
Tomorrow will be 1m 44s shorter.
Waning Crescent, 20% of the Moon is Illuminated
Today
Waning Crescent
Aug 25
New
Sep 2
First Quarter
Sep 8
Full
Sep 15
Last Quarter

Today's Extremes

State Highs State Lows

Community

WunderPhotos

Upload Photos

1,745,689 photos uploaded!

Nearby

Snow Depth

Station Depth Elevation
No new snow has been reported.

Earthquake Activity

City Distance Mag. Time & Date
No recent earthquake activity has been reported nearby.
Minimum magnitude displayed is 2.5.

Coastal Water Temperatures

Place Temperature
No Stations Reporting

Nearby Weather Stations